sensor_id;sensor_type;location;lat;lon;timestamp;P1;durP1;ratioP1;P2;durP2;ratioP2
82412;SDS011;72056;51.980;15.436;2023-09-19T00:02:29;5.25;;;1.42;;
82412;SDS011;72056;51.980;15.436;2023-09-19T00:05:44;5.40;;;1.50;;
82412;SDS011;72056;51.980;15.436;2023-09-19T00:08:30;6.18;;;1.70;;
82412;SDS011;72056;51.980;15.436;2023-09-19T00:11:38;4.60;;;1.30;;
82412;SDS011;72056;51.980;15.436;2023-09-19T00:14:44;6.22;;;1.65;;
82412;SDS011;72056;51.980;15.436;2023-09-19T00:18:09;4.53;;;1.63;;
82412;SDS011;72056;51.980;15.436;2023-09-19T00:21:04;5.35;;;1.40;;
82412;SDS011;72056;51.980;15.436;2023-09-19T00:24:10;5.45;;;1.70;;
82412;SDS011;72056;51.980;15.436;2023-09-19T00:27:13;4.55;;;1.60;;
82412;SDS011;72056;51.980;15.436;2023-09-19T00:30:19;6.70;;;1.92;;
82412;SDS011;72056;51.980;15.436;2023-09-19T00:33:11;4.60;;;1.55;;
82412;SDS011;72056;51.980;15.436;2023-09-19T00:35:57;5.13;;;1.70;;
82412;SDS011;72056;51.980;15.436;2023-09-19T00:39:06;5.20;;;1.58;;
82412;SDS011;72056;51.980;15.436;2023-09-19T00:42:00;4.78;;;1.30;;
82412;SDS011;72056;51.980;15.436;2023-09-19T00:45:06;3.33;;;1.23;;
82412;SDS011;72056;51.980;15.436;2023-09-19T00:48:12;4.03;;;1.42;;
82412;SDS011;72056;51.980;15.436;2023-09-19T00:51:18;5.28;;;1.60;;
82412;SDS011;72056;51.980;15.436;2023-09-19T00:54:08;6.63;;;1.88;;
82412;SDS011;72056;51.980;15.436;2023-09-19T00:57:34;5.28;;;1.70;;
82412;SDS011;72056;51.980;15.436;2023-09-19T01:00:20;7.32;;;2.58;;
82412;SDS011;72056;51.980;15.436;2023-09-19T01:03:26;8.27;;;2.72;;
82412;SDS011;72056;51.980;15.436;2023-09-19T01:06:12;7.35;;;3.00;;
82412;SDS011;72056;51.980;15.436;2023-09-19T01:09:38;9.18;;;3.78;;
82412;SDS011;72056;51.980;15.436;2023-09-19T01:15:55;9.90;;;4.05;;
82412;SDS011;72056;51.980;15.436;2023-09-19T01:19:32;10.48;;;3.92;;
82412;SDS011;72056;51.980;15.436;2023-09-19T01:25:58;10.65;;;4.57;;
82412;SDS011;72056;51.980;15.436;2023-09-19T01:29:07;11.65;;;4.75;;
82412;SDS011;72056;51.980;15.436;2023-09-19T01:32:24;9.18;;;4.22;;
82412;SDS011;72056;51.980;15.436;2023-09-19T01:35:29;8.00;;;3.70;;
82412;SDS011;72056;51.980;15.436;2023-09-19T01:38:35;12.02;;;4.03;;
82412;SDS011;72056;51.980;15.436;2023-09-19T01:41:51;7.32;;;3.67;;
82412;SDS011;72056;51.980;15.436;2023-09-19T01:45:09;8.60;;;3.92;;
82412;SDS011;72056;51.980;15.436;2023-09-19T01:47:59;9.05;;;4.05;;
82412;SDS011;72056;51.980;15.436;2023-09-19T01:51:09;9.70;;;3.55;;
82412;SDS011;72056;51.980;15.436;2023-09-19T01:54:40;7.93;;;3.40;;
82412;SDS011;72056;51.980;15.436;2023-09-19T01:57:48;7.55;;;3.10;;
82412;SDS011;72056;51.980;15.436;2023-09-19T02:00:36;7.25;;;3.53;;
82412;SDS011;72056;51.980;15.436;2023-09-19T02:04:00;7.72;;;3.13;;
82412;SDS011;72056;51.980;15.436;2023-09-19T02:06:46;6.82;;;3.38;;
82412;SDS011;72056;51.980;15.436;2023-09-19T02:09:46;8.18;;;3.30;;
82412;SDS011;72056;51.980;15.436;2023-09-19T02:12:54;7.32;;;3.17;;
82412;SDS011;72056;51.980;15.436;2023-09-19T02:16:03;7.32;;;2.92;;
82412;SDS011;72056;51.980;15.436;2023-09-19T02:18:49;7.35;;;3.00;;
82412;SDS011;72056;51.980;15.436;2023-09-19T02:21:35;8.20;;;3.20;;
82412;SDS011;72056;51.980;15.436;2023-09-19T02:25:01;8.20;;;3.03;;
82412;SDS011;72056;51.980;15.436;2023-09-19T02:28:29;7.32;;;3.10;;
82412;SDS011;72056;51.980;15.436;2023-09-19T02:31:15;7.70;;;2.97;;
82412;SDS011;72056;51.980;15.436;2023-09-19T02:34:43;9.82;;;2.90;;
82412;SDS011;72056;51.980;15.436;2023-09-19T02:37:29;9.40;;;3.08;;
82412;SDS011;72056;51.980;15.436;2023-09-19T02:40:55;8.48;;;2.72;;
82412;SDS011;72056;51.980;15.436;2023-09-19T02:43:40;8.50;;;3.17;;
82412;SDS011;72056;51.980;15.436;2023-09-19T02:46:46;8.38;;;2.80;;
82412;SDS011;72056;51.980;15.436;2023-09-19T02:49:52;9.20;;;3.30;;
82412;SDS011;72056;51.980;15.436;2023-09-19T02:52:58;8.48;;;2.97;;
82412;SDS011;72056;51.980;15.436;2023-09-19T02:56:23;6.32;;;2.45;;
82412;SDS011;72056;51.980;15.436;2023-09-19T02:59:33;7.97;;;2.85;;
82412;SDS011;72056;51.980;15.436;2023-09-19T03:02:38;7.80;;;2.90;;
82412;SDS011;72056;51.980;15.436;2023-09-19T03:05:44;9.00;;;2.53;;
82412;SDS011;72056;51.980;15.436;2023-09-19T03:08:53;6.68;;;2.60;;
82412;SDS011;72056;51.980;15.436;2023-09-19T03:11:59;9.50;;;2.85;;
82412;SDS011;72056;51.980;15.436;2023-09-19T03:15:27;6.65;;;2.53;;
82412;SDS011;72056;51.980;15.436;2023-09-19T03:17:53;6.75;;;2.40;;
82412;SDS011;72056;51.980;15.436;2023-09-19T03:20:19;7.15;;;2.95;;
82412;SDS011;72056;51.980;15.436;2023-09-19T03:22:46;8.43;;;2.80;;
82412;SDS011;72056;51.980;15.436;2023-09-19T03:25:13;7.07;;;2.92;;
82412;SDS011;72056;51.980;15.436;2023-09-19T03:27:40;8.07;;;2.80;;
82412;SDS011;72056;51.980;15.436;2023-09-19T03:30:06;6.88;;;2.60;;
82412;SDS011;72056;51.980;15.436;2023-09-19T03:32:35;7.30;;;2.58;;
82412;SDS011;72056;51.980;15.436;2023-09-19T03:35:02;7.35;;;3.00;;
82412;SDS011;72056;51.980;15.436;2023-09-19T03:37:49;7.63;;;2.78;;
82412;SDS011;72056;51.980;15.436;2023-09-19T03:40:18;8.75;;;2.90;;
82412;SDS011;72056;51.980;15.436;2023-09-19T03:42:47;6.05;;;2.45;;
82412;SDS011;72056;51.980;15.436;2023-09-19T03:45:13;8.93;;;2.90;;
82412;SDS011;72056;51.980;15.436;2023-09-19T03:47:41;6.53;;;2.67;;
82412;SDS011;72056;51.980;15.436;2023-09-19T03:50:08;7.22;;;2.80;;
82412;SDS011;72056;51.980;15.436;2023-09-19T03:52:41;6.80;;;2.72;;
82412;SDS011;72056;51.980;15.436;2023-09-19T03:55:07;8.20;;;2.90;;
82412;SDS011;72056;51.980;15.436;2023-09-19T03:57:35;6.60;;;2.60;;
82412;SDS011;72056;51.980;15.436;2023-09-19T04:00:03;10.43;;;2.72;;
82412;SDS011;72056;51.980;15.436;2023-09-19T04:02:31;7.30;;;2.97;;
82412;SDS011;72056;51.980;15.436;2023-09-19T04:04:58;6.10;;;2.55;;
82412;SDS011;72056;51.980;15.436;2023-09-19T04:07:26;9.52;;;2.78;;
82412;SDS011;72056;51.980;15.436;2023-09-19T04:10:12;7.72;;;2.97;;
82412;SDS011;72056;51.980;15.436;2023-09-19T04:12:40;6.68;;;2.65;;
82412;SDS011;72056;51.980;15.436;2023-09-19T04:15:06;10.88;;;2.72;;
82412;SDS011;72056;51.980;15.436;2023-09-19T04:17:39;11.10;;;3.20;;
82412;SDS011;72056;51.980;15.436;2023-09-19T04:20:05;7.93;;;2.60;;
82412;SDS011;72056;51.980;15.436;2023-09-19T04:22:38;6.55;;;2.70;;
82412;SDS011;72056;51.980;15.436;2023-09-19T04:25:04;8.30;;;2.70;;
82412;SDS011;72056;51.980;15.436;2023-09-19T04:27:36;8.20;;;2.75;;
82412;SDS011;72056;51.980;15.436;2023-09-19T04:30:04;6.43;;;2.75;;
82412;SDS011;72056;51.980;15.436;2023-09-19T04:32:40;6.75;;;2.78;;
82412;SDS011;72056;51.980;15.436;2023-09-19T04:35:07;7.43;;;2.63;;
82412;SDS011;72056;51.980;15.436;2023-09-19T04:37:39;7.72;;;3.20;;
82412;SDS011;72056;51.980;15.436;2023-09-19T04:40:07;10.68;;;3.28;;
82412;SDS011;72056;51.980;15.436;2023-09-19T04:42:39;6.53;;;2.90;;
82412;SDS011;72056;51.980;15.436;2023-09-19T04:45:06;5.53;;;2.35;;
82412;SDS011;72056;51.980;15.436;2023-09-19T04:47:36;7.40;;;2.60;;
82412;SDS011;72056;51.980;15.436;2023-09-19T04:50:07;8.52;;;2.80;;
82412;SDS011;72056;51.980;15.436;2023-09-19T04:52:38;6.53;;;2.38;;
82412;SDS011;72056;51.980;15.436;2023-09-19T04:55:08;10.27;;;2.80;;
82412;SDS011;72056;51.980;15.436;2023-09-19T04:57:36;8.07;;;3.03;;
82412;SDS011;72056;51.980;15.436;2023-09-19T05:00:03;6.97;;;2.72;;
82412;SDS011;72056;51.980;15.436;2023-09-19T05:02:38;10.35;;;3.25;;
82412;SDS011;72056;51.980;15.436;2023-09-19T05:05:06;8.93;;;3.25;;
82412;SDS011;72056;51.980;15.436;2023-09-19T05:07:34;7.97;;;2.83;;
82412;SDS011;72056;51.980;15.436;2023-09-19T05:10:01;6.47;;;2.63;;
82412;SDS011;72056;51.980;15.436;2023-09-19T05:12:32;7.53;;;2.30;;
82412;SDS011;72056;51.980;15.436;2023-09-19T05:14:59;7.70;;;3.08;;
82412;SDS011;72056;51.980;15.436;2023-09-19T05:17:27;8.25;;;2.70;;
82412;SDS011;72056;51.980;15.436;2023-09-19T05:19:53;6.80;;;3.00;;
82412;SDS011;72056;51.980;15.436;2023-09-19T05:22:21;7.57;;;2.85;;
82412;SDS011;72056;51.980;15.436;2023-09-19T05:24:50;7.88;;;2.63;;
82412;SDS011;72056;51.980;15.436;2023-09-19T05:27:16;7.15;;;2.88;;
82412;SDS011;72056;51.980;15.436;2023-09-19T05:29:43;7.63;;;3.03;;
82412;SDS011;72056;51.980;15.436;2023-09-19T05:32:10;10.45;;;2.70;;
82412;SDS011;72056;51.980;15.436;2023-09-19T05:34:37;8.38;;;3.30;;
82412;SDS011;72056;51.980;15.436;2023-09-19T05:37:04;9.25;;;2.67;;
82412;SDS011;72056;51.980;15.436;2023-09-19T05:39:33;6.63;;;2.67;;
82412;SDS011;72056;51.980;15.436;2023-09-19T05:41:59;6.53;;;2.55;;
82412;SDS011;72056;51.980;15.436;2023-09-19T05:44:26;7.55;;;2.92;;
82412;SDS011;72056;51.980;15.436;2023-09-19T05:46:53;8.50;;;3.17;;
82412;SDS011;72056;51.980;15.436;2023-09-19T05:49:22;7.57;;;2.20;;
82412;SDS011;72056;51.980;15.436;2023-09-19T05:51:50;6.22;;;2.67;;
82412;SDS011;72056;51.980;15.436;2023-09-19T05:54:19;9.40;;;2.65;;
82412;SDS011;72056;51.980;15.436;2023-09-19T05:56:46;5.82;;;2.50;;
82412;SDS011;72056;51.980;15.436;2023-09-19T05:59:12;10.45;;;2.90;;
82412;SDS011;72056;51.980;15.436;2023-09-19T06:01:44;7.82;;;3.00;;
82412;SDS011;72056;51.980;15.436;2023-09-19T06:04:10;7.05;;;2.58;;
82412;SDS011;72056;51.980;15.436;2023-09-19T06:06:38;7.10;;;2.58;;
82412;SDS011;72056;51.980;15.436;2023-09-19T06:09:06;7.68;;;2.60;;
82412;SDS011;72056;51.980;15.436;2023-09-19T06:11:35;5.82;;;1.88;;
82412;SDS011;72056;51.980;15.436;2023-09-19T06:14:03;6.93;;;2.30;;
82412;SDS011;72056;51.980;15.436;2023-09-19T06:16:30;6.47;;;2.80;;
82412;SDS011;72056;51.980;15.436;2023-09-19T06:19:16;6.25;;;2.80;;
82412;SDS011;72056;51.980;15.436;2023-09-19T06:21:43;6.13;;;2.42;;
82412;SDS011;72056;51.980;15.436;2023-09-19T06:24:10;6.05;;;2.58;;
82412;SDS011;72056;51.980;15.436;2023-09-19T06:26:38;6.85;;;2.65;;
82412;SDS011;72056;51.980;15.436;2023-09-19T06:29:09;5.80;;;2.70;;
82412;SDS011;72056;51.980;15.436;2023-09-19T06:31:38;7.65;;;2.25;;
82412;SDS011;72056;51.980;15.436;2023-09-19T06:34:04;6.03;;;2.60;;
82412;SDS011;72056;51.980;15.436;2023-09-19T06:36:30;6.05;;;2.17;;
82412;SDS011;72056;51.980;15.436;2023-09-19T06:38:57;6.68;;;2.60;;
82412;SDS011;72056;51.980;15.436;2023-09-19T06:41:24;6.28;;;2.22;;
82412;SDS011;72056;51.980;15.436;2023-09-19T06:43:55;6.05;;;2.80;;
82412;SDS011;72056;51.980;15.436;2023-09-19T06:46:23;9.50;;;2.40;;
82412;SDS011;72056;51.980;15.436;2023-09-19T06:48:58;7.32;;;2.22;;
82412;SDS011;72056;51.980;15.436;2023-09-19T06:54:01;5.22;;;2.50;;
82412;SDS011;72056;51.980;15.436;2023-09-19T06:56:28;5.95;;;2.20;;
82412;SDS011;72056;51.980;15.436;2023-09-19T06:58:55;8.52;;;2.28;;
82412;SDS011;72056;51.980;15.436;2023-09-19T07:01:22;6.65;;;2.25;;
82412;SDS011;72056;51.980;15.436;2023-09-19T07:03:50;6.28;;;2.30;;
82412;SDS011;72056;51.980;15.436;2023-09-19T07:06:18;4.57;;;1.90;;
82412;SDS011;72056;51.980;15.436;2023-09-19T07:08:47;6.03;;;2.08;;
82412;SDS011;72056;51.980;15.436;2023-09-19T07:11:16;6.75;;;2.50;;
82412;SDS011;72056;51.980;15.436;2023-09-19T07:13:42;5.90;;;2.25;;
82412;SDS011;72056;51.980;15.436;2023-09-19T07:16:10;6.82;;;2.10;;
82412;SDS011;72056;51.980;15.436;2023-09-19T07:18:39;5.07;;;2.03;;
82412;SDS011;72056;51.980;15.436;2023-09-19T07:21:05;6.00;;;2.13;;
82412;SDS011;72056;51.980;15.436;2023-09-19T07:23:32;5.35;;;1.90;;
82412;SDS011;72056;51.980;15.436;2023-09-19T07:26:01;4.88;;;2.30;;
82412;SDS011;72056;51.980;15.436;2023-09-19T07:28:30;7.57;;;1.90;;
82412;SDS011;72056;51.980;15.436;2023-09-19T07:30:57;7.30;;;2.28;;
82412;SDS011;72056;51.980;15.436;2023-09-19T07:33:27;5.95;;;1.90;;
82412;SDS011;72056;51.980;15.436;2023-09-19T07:35:55;4.85;;;1.98;;
82412;SDS011;72056;51.980;15.436;2023-09-19T07:38:22;5.25;;;1.80;;
82412;SDS011;72056;51.980;15.436;2023-09-19T07:40:49;5.20;;;2.10;;
82412;SDS011;72056;51.980;15.436;2023-09-19T07:43:19;5.30;;;1.70;;
82412;SDS011;72056;51.980;15.436;2023-09-19T07:45:46;4.75;;;1.65;;
82412;SDS011;72056;51.980;15.436;2023-09-19T07:48:13;5.28;;;2.10;;
82412;SDS011;72056;51.980;15.436;2023-09-19T07:50:40;4.47;;;1.92;;
82412;SDS011;72056;51.980;15.436;2023-09-19T07:53:09;6.38;;;2.38;;
82412;SDS011;72056;51.980;15.436;2023-09-19T07:55:36;5.68;;;1.80;;
82412;SDS011;72056;51.980;15.436;2023-09-19T07:58:03;4.80;;;1.60;;
82412;SDS011;72056;51.980;15.436;2023-09-19T08:00:31;4.40;;;1.95;;
82412;SDS011;72056;51.980;15.436;2023-09-19T08:03:00;6.90;;;2.00;;
82412;SDS011;72056;51.980;15.436;2023-09-19T08:05:29;5.28;;;1.88;;
82412;SDS011;72056;51.980;15.436;2023-09-19T08:07:56;5.80;;;1.98;;
82412;SDS011;72056;51.980;15.436;2023-09-19T08:10:22;5.28;;;1.67;;
82412;SDS011;72056;51.980;15.436;2023-09-19T08:12:52;5.10;;;1.70;;
82412;SDS011;72056;51.980;15.436;2023-09-19T08:15:23;5.10;;;2.08;;
82412;SDS011;72056;51.980;15.436;2023-09-19T08:17:50;5.88;;;2.00;;
82412;SDS011;72056;51.980;15.436;2023-09-19T08:20:17;4.70;;;1.90;;
82412;SDS011;72056;51.980;15.436;2023-09-19T08:22:46;6.70;;;1.98;;
82412;SDS011;72056;51.980;15.436;2023-09-19T08:25:19;4.97;;;1.90;;
82412;SDS011;72056;51.980;15.436;2023-09-19T08:27:45;6.72;;;2.00;;
82412;SDS011;72056;51.980;15.436;2023-09-19T08:30:15;6.70;;;2.35;;
82412;SDS011;72056;51.980;15.436;2023-09-19T08:32:50;5.05;;;1.50;;
82412;SDS011;72056;51.980;15.436;2023-09-19T08:35:18;5.32;;;1.67;;
82412;SDS011;72056;51.980;15.436;2023-09-19T08:37:44;5.78;;;1.60;;
82412;SDS011;72056;51.980;15.436;2023-09-19T08:40:12;4.63;;;1.70;;
82412;SDS011;72056;51.980;15.436;2023-09-19T08:42:48;3.97;;;1.40;;
82412;SDS011;72056;51.980;15.436;2023-09-19T08:45:22;4.57;;;1.65;;
82412;SDS011;72056;51.980;15.436;2023-09-19T08:47:59;5.28;;;1.85;;
82412;SDS011;72056;51.980;15.436;2023-09-19T08:50:29;4.93;;;1.70;;
82412;SDS011;72056;51.980;15.436;2023-09-19T08:52:56;4.40;;;1.58;;
82412;SDS011;72056;51.980;15.436;2023-09-19T08:55:27;5.53;;;1.90;;
82412;SDS011;72056;51.980;15.436;2023-09-19T08:57:59;3.85;;;1.35;;
82412;SDS011;72056;51.980;15.436;2023-09-19T09:00:28;6.07;;;1.92;;
82412;SDS011;72056;51.980;15.436;2023-09-19T09:02:54;4.38;;;1.80;;
82412;SDS011;72056;51.980;15.436;2023-09-19T09:05:24;6.63;;;2.08;;
82412;SDS011;72056;51.980;15.436;2023-09-19T09:07:52;6.85;;;1.90;;
82412;SDS011;72056;51.980;15.436;2023-09-19T09:10:25;5.07;;;1.83;;
82412;SDS011;72056;51.980;15.436;2023-09-19T09:12:54;6.60;;;1.70;;
82412;SDS011;72056;51.980;15.436;2023-09-19T09:15:23;5.05;;;1.73;;
82412;SDS011;72056;51.980;15.436;2023-09-19T09:17:51;4.22;;;1.60;;
82412;SDS011;72056;51.980;15.436;2023-09-19T09:20:20;5.28;;;1.77;;
82412;SDS011;72056;51.980;15.436;2023-09-19T09:22:54;6.97;;;1.83;;
82412;SDS011;72056;51.980;15.436;2023-09-19T09:28:21;5.05;;;1.52;;
82412;SDS011;72056;51.980;15.436;2023-09-19T09:31:07;5.88;;;1.70;;
82412;SDS011;72056;51.980;15.436;2023-09-19T09:33:55;4.40;;;1.60;;
82412;SDS011;72056;51.980;15.436;2023-09-19T09:36:36;4.43;;;1.70;;
82412;SDS011;72056;51.980;15.436;2023-09-19T09:39:05;5.13;;;2.10;;
82412;SDS011;72056;51.980;15.436;2023-09-19T09:41:50;5.20;;;1.88;;
82412;SDS011;72056;51.980;15.436;2023-09-19T09:44:18;4.28;;;1.80;;
82412;SDS011;72056;51.980;15.436;2023-09-19T09:46:45;3.95;;;1.75;;
82412;SDS011;72056;51.980;15.436;2023-09-19T09:49:18;4.60;;;1.80;;
82412;SDS011;72056;51.980;15.436;2023-09-19T09:52:03;4.65;;;1.75;;
82412;SDS011;72056;51.980;15.436;2023-09-19T09:54:34;4.40;;;1.85;;
82412;SDS011;72056;51.980;15.436;2023-09-19T09:57:08;4.53;;;1.60;;
82412;SDS011;72056;51.980;15.436;2023-09-19T10:02:25;3.92;;;1.52;;
82412;SDS011;72056;51.980;15.436;2023-09-19T10:04:55;4.85;;;1.75;;
82412;SDS011;72056;51.980;15.436;2023-09-19T10:07:35;3.85;;;1.55;;
82412;SDS011;72056;51.980;15.436;2023-09-19T10:10:04;4.70;;;1.55;;
82412;SDS011;72056;51.980;15.436;2023-09-19T10:12:52;3.38;;;1.48;;
82412;SDS011;72056;51.980;15.436;2023-09-19T10:15:21;4.70;;;2.10;;
82412;SDS011;72056;51.980;15.436;2023-09-19T10:17:52;4.70;;;1.50;;
82412;SDS011;72056;51.980;15.436;2023-09-19T10:20:24;4.68;;;1.67;;
82412;SDS011;72056;51.980;15.436;2023-09-19T10:22:59;5.22;;;1.50;;
82412;SDS011;72056;51.980;15.436;2023-09-19T10:25:28;3.10;;;1.10;;
82412;SDS011;72056;51.980;15.436;2023-09-19T10:27:59;4.60;;;1.35;;
82412;SDS011;72056;51.980;15.436;2023-09-19T10:30:29;3.58;;;1.30;;
82412;SDS011;72056;51.980;15.436;2023-09-19T10:33:01;4.57;;;1.40;;
82412;SDS011;72056;51.980;15.436;2023-09-19T10:35:29;3.38;;;1.50;;
82412;SDS011;72056;51.980;15.436;2023-09-19T10:38:00;3.50;;;1.52;;
82412;SDS011;72056;51.980;15.436;2023-09-19T10:40:27;4.03;;;1.40;;
82412;SDS011;72056;51.980;15.436;2023-09-19T10:43:03;3.33;;;1.60;;
82412;SDS011;72056;51.980;15.436;2023-09-19T10:45:30;4.07;;;1.55;;
82412;SDS011;72056;51.980;15.436;2023-09-19T10:47:59;4.05;;;1.50;;
82412;SDS011;72056;51.980;15.436;2023-09-19T10:50:26;2.53;;;1.20;;
82412;SDS011;72056;51.980;15.436;2023-09-19T10:52:59;3.03;;;1.20;;
82412;SDS011;72056;51.980;15.436;2023-09-19T10:55:30;3.72;;;1.10;;
82412;SDS011;72056;51.980;15.436;2023-09-19T10:58:01;3.33;;;1.65;;
82412;SDS011;72056;51.980;15.436;2023-09-19T11:00:29;4.05;;;1.58;;
82412;SDS011;72056;51.980;15.436;2023-09-19T11:05:38;3.88;;;1.38;;
82412;SDS011;72056;51.980;15.436;2023-09-19T11:08:09;3.42;;;1.20;;
82412;SDS011;72056;51.980;15.436;2023-09-19T11:10:46;3.17;;;1.40;;
82412;SDS011;72056;51.980;15.436;2023-09-19T11:13:25;4.38;;;1.23;;
82412;SDS011;72056;51.980;15.436;2023-09-19T11:16:03;3.22;;;0.93;;
82412;SDS011;72056;51.980;15.436;2023-09-19T11:26:41;3.95;;;1.20;;
82412;SDS011;72056;51.980;15.436;2023-09-19T11:29:24;3.53;;;1.15;;
82412;SDS011;72056;51.980;15.436;2023-09-19T11:31:56;3.45;;;1.40;;
82412;SDS011;72056;51.980;15.436;2023-09-19T11:39:37;3.67;;;1.20;;
82412;SDS011;72056;51.980;15.436;2023-09-19T11:48:26;3.97;;;1.30;;
82412;SDS011;72056;51.980;15.436;2023-09-19T11:50:53;4.68;;;1.70;;
82412;SDS011;72056;51.980;15.436;2023-09-19T11:53:21;4.13;;;1.67;;
82412;SDS011;72056;51.980;15.436;2023-09-19T11:55:49;3.35;;;1.33;;
82412;SDS011;72056;51.980;15.436;2023-09-19T11:58:18;4.22;;;1.30;;
82412;SDS011;72056;51.980;15.436;2023-09-19T12:00:45;4.30;;;1.60;;
82412;SDS011;72056;51.980;15.436;2023-09-19T12:03:19;4.30;;;1.63;;
82412;SDS011;72056;51.980;15.436;2023-09-19T12:05:47;4.57;;;1.52;;
82412;SDS011;72056;51.980;15.436;2023-09-19T12:08:14;5.32;;;1.73;;
82412;SDS011;72056;51.980;15.436;2023-09-19T12:10:49;3.63;;;1.30;;
82412;SDS011;72056;51.980;15.436;2023-09-19T12:13:17;5.07;;;1.50;;
82412;SDS011;72056;51.980;15.436;2023-09-19T12:15:44;3.70;;;1.60;;
82412;SDS011;72056;51.980;15.436;2023-09-19T12:18:28;4.60;;;1.52;;
82412;SDS011;72056;51.980;15.436;2023-09-19T12:20:56;4.90;;;1.55;;
82412;SDS011;72056;51.980;15.436;2023-09-19T12:23:23;3.55;;;1.45;;
82412;SDS011;72056;51.980;15.436;2023-09-19T12:25:56;4.13;;;1.50;;
82412;SDS011;72056;51.980;15.436;2023-09-19T12:28:25;4.40;;;1.55;;
82412;SDS011;72056;51.980;15.436;2023-09-19T12:30:53;4.50;;;1.70;;
82412;SDS011;72056;51.980;15.436;2023-09-19T12:33:20;5.03;;;1.63;;
82412;SDS011;72056;51.980;15.436;2023-09-19T12:35:52;4.22;;;1.58;;
82412;SDS011;72056;51.980;15.436;2023-09-19T12:38:25;3.67;;;1.50;;
82412;SDS011;72056;51.980;15.436;2023-09-19T12:40:57;3.58;;;1.50;;
82412;SDS011;72056;51.980;15.436;2023-09-19T12:43:30;4.05;;;1.40;;
82412;SDS011;72056;51.980;15.436;2023-09-19T12:45:59;4.35;;;1.58;;
82412;SDS011;72056;51.980;15.436;2023-09-19T12:48:26;4.53;;;1.50;;
82412;SDS011;72056;51.980;15.436;2023-09-19T12:51:06;5.10;;;1.65;;
82412;SDS011;72056;51.980;15.436;2023-09-19T12:56:13;5.90;;;1.90;;
82412;SDS011;72056;51.980;15.436;2023-09-19T13:01:24;4.85;;;1.63;;
82412;SDS011;72056;51.980;15.436;2023-09-19T13:06:38;5.50;;;1.77;;
82412;SDS011;72056;51.980;15.436;2023-09-19T13:09:11;3.95;;;1.63;;
82412;SDS011;72056;51.980;15.436;2023-09-19T13:11:40;6.20;;;1.95;;
82412;SDS011;72056;51.980;15.436;2023-09-19T13:14:13;6.38;;;1.88;;
82412;SDS011;72056;51.980;15.436;2023-09-19T13:16:53;4.22;;;1.70;;
82412;SDS011;72056;51.980;15.436;2023-09-19T13:19:34;4.53;;;2.03;;
82412;SDS011;72056;51.980;15.436;2023-09-19T13:22:01;4.95;;;2.00;;
82412;SDS011;72056;51.980;15.436;2023-09-19T13:24:29;5.32;;;1.95;;
82412;SDS011;72056;51.980;15.436;2023-09-19T13:26:56;5.65;;;2.10;;
82412;SDS011;72056;51.980;15.436;2023-09-19T13:29:23;5.75;;;1.98;;
82412;SDS011;72056;51.980;15.436;2023-09-19T13:31:52;5.70;;;2.03;;
82412;SDS011;72056;51.980;15.436;2023-09-19T13:34:19;6.10;;;1.85;;
82412;SDS011;72056;51.980;15.436;2023-09-19T13:36:46;5.45;;;1.60;;
82412;SDS011;72056;51.980;15.436;2023-09-19T13:39:15;6.63;;;2.05;;
82412;SDS011;72056;51.980;15.436;2023-09-19T13:41:43;4.75;;;1.67;;
82412;SDS011;72056;51.980;15.436;2023-09-19T13:44:12;5.43;;;1.85;;
82412;SDS011;72056;51.980;15.436;2023-09-19T13:46:39;5.22;;;1.85;;
82412;SDS011;72056;51.980;15.436;2023-09-19T13:49:09;5.30;;;1.70;;
82412;SDS011;72056;51.980;15.436;2023-09-19T13:51:35;5.53;;;1.70;;
82412;SDS011;72056;51.980;15.436;2023-09-19T13:54:03;4.82;;;1.65;;
82412;SDS011;72056;51.980;15.436;2023-09-19T13:56:31;4.78;;;1.70;;
82412;SDS011;72056;51.980;15.436;2023-09-19T13:58:59;4.53;;;1.38;;
82412;SDS011;72056;51.980;15.436;2023-09-19T14:01:25;5.85;;;1.70;;
82412;SDS011;72056;51.980;15.436;2023-09-19T14:03:52;4.03;;;1.27;;
82412;SDS011;72056;51.980;15.436;2023-09-19T14:06:20;4.55;;;1.60;;
82412;SDS011;72056;51.980;15.436;2023-09-19T14:08:46;4.38;;;1.63;;
82412;SDS011;72056;51.980;15.436;2023-09-19T14:11:13;6.03;;;1.80;;
82412;SDS011;72056;51.980;15.436;2023-09-19T14:13:41;5.85;;;1.90;;
82412;SDS011;72056;51.980;15.436;2023-09-19T14:16:12;6.43;;;1.60;;
82412;SDS011;72056;51.980;15.436;2023-09-19T14:18:38;4.78;;;1.60;;
82412;SDS011;72056;51.980;15.436;2023-09-19T14:21:06;5.03;;;1.40;;
82412;SDS011;72056;51.980;15.436;2023-09-19T14:23:37;7.03;;;1.58;;
82412;SDS011;72056;51.980;15.436;2023-09-19T14:26:04;5.10;;;1.50;;
82412;SDS011;72056;51.980;15.436;2023-09-19T14:28:34;4.55;;;1.58;;
82412;SDS011;72056;51.980;15.436;2023-09-19T14:31:05;5.70;;;1.40;;
82412;SDS011;72056;51.980;15.436;2023-09-19T14:33:32;5.03;;;1.70;;
82412;SDS011;72056;51.980;15.436;2023-09-19T14:36:03;3.63;;;1.33;;
82412;SDS011;72056;51.980;15.436;2023-09-19T14:38:34;5.10;;;1.55;;
82412;SDS011;72056;51.980;15.436;2023-09-19T14:41:02;6.53;;;1.63;;
82412;SDS011;72056;51.980;15.436;2023-09-19T14:43:30;4.55;;;1.75;;
82412;SDS011;72056;51.980;15.436;2023-09-19T14:46:04;5.15;;;1.60;;
82412;SDS011;72056;51.980;15.436;2023-09-19T14:48:35;5.25;;;1.77;;
82412;SDS011;72056;51.980;15.436;2023-09-19T14:51:04;5.15;;;1.55;;
82412;SDS011;72056;51.980;15.436;2023-09-19T14:53:31;4.90;;;1.63;;
82412;SDS011;72056;51.980;15.436;2023-09-19T14:56:02;4.43;;;1.38;;
82412;SDS011;72056;51.980;15.436;2023-09-19T14:58:29;4.97;;;1.70;;
82412;SDS011;72056;51.980;15.436;2023-09-19T15:01:08;7.00;;;1.65;;
82412;SDS011;72056;51.980;15.436;2023-09-19T15:03:39;5.47;;;1.80;;
82412;SDS011;72056;51.980;15.436;2023-09-19T15:06:11;4.97;;;1.70;;
82412;SDS011;72056;51.980;15.436;2023-09-19T15:08:43;4.88;;;1.70;;
82412;SDS011;72056;51.980;15.436;2023-09-19T15:11:13;5.88;;;1.83;;
82412;SDS011;72056;51.980;15.436;2023-09-19T15:13:42;6.40;;;1.35;;
82412;SDS011;72056;51.980;15.436;2023-09-19T15:16:09;7.47;;;1.58;;
82412;SDS011;72056;51.980;15.436;2023-09-19T15:18:36;4.70;;;1.83;;
82412;SDS011;72056;51.980;15.436;2023-09-19T15:21:03;4.10;;;1.42;;
82412;SDS011;72056;51.980;15.436;2023-09-19T15:23:30;4.25;;;1.30;;
82412;SDS011;72056;51.980;15.436;2023-09-19T15:26:00;4.95;;;1.35;;
82412;SDS011;72056;51.980;15.436;2023-09-19T15:28:27;6.57;;;1.65;;
82412;SDS011;72056;51.980;15.436;2023-09-19T15:33:27;4.60;;;1.40;;
82412;SDS011;72056;51.980;15.436;2023-09-19T15:36:00;5.22;;;1.50;;
82412;SDS011;72056;51.980;15.436;2023-09-19T15:38:32;5.15;;;1.70;;
82412;SDS011;72056;51.980;15.436;2023-09-19T15:41:35;5.18;;;1.48;;
82412;SDS011;72056;51.980;15.436;2023-09-19T15:44:15;6.40;;;1.70;;
82412;SDS011;72056;51.980;15.436;2023-09-19T15:46:44;4.82;;;1.30;;
82412;SDS011;72056;51.980;15.436;2023-09-19T15:49:11;5.18;;;1.45;;
82412;SDS011;72056;51.980;15.436;2023-09-19T15:51:39;4.65;;;1.60;;
82412;SDS011;72056;51.980;15.436;2023-09-19T15:54:10;5.97;;;1.92;;
82412;SDS011;72056;51.980;15.436;2023-09-19T15:56:43;4.65;;;1.60;;
82412;SDS011;72056;51.980;15.436;2023-09-19T15:59:27;4.35;;;1.60;;
82412;SDS011;72056;51.980;15.436;2023-09-19T16:01:55;6.47;;;1.88;;
82412;SDS011;72056;51.980;15.436;2023-09-19T16:04:22;5.68;;;1.60;;
82412;SDS011;72056;51.980;15.436;2023-09-19T16:06:49;4.38;;;1.42;;
82412;SDS011;72056;51.980;15.436;2023-09-19T16:09:17;5.53;;;1.35;;
82412;SDS011;72056;51.980;15.436;2023-09-19T16:11:44;6.10;;;1.70;;
82412;SDS011;72056;51.980;15.436;2023-09-19T16:16:41;5.70;;;1.70;;